Green Springs, Ohio
Current Conditions -  °F | °C
As of 8:32 AM on Monday 22 Dec 2014 (Local Time) from KPCW Reporting Station
Clear Clear  
Wind Chill: 21°   Ceiling: Unl
Heat Index: 27°   Visibility: 8mi
Dew Point: 21°   Wind: 5mph
Humidity: 80%   Direction: 120°ESE
Pressure: 30.07"   Gusts: NA
Location:  41.26°N, 83.05°W
Report Text: KPCW 221332Z AUTO 12004KT 8SM CLR M03/M06 A3007 RMK AO2 $
Loading
Personal Weather Stations






























Interactive Weather Map New forecast layout! Learn more

10-Day Weather Forecast

Advertisements
Track Severe Weather on mobile